Time;durP1;ratioP1;P1;durP2;ratioP2;P2;SDS_P1;SDS_P2;PMS_P1;PMS_P2;Temp;Humidity;BMP_temperature;BMP_pressure;BME280_temperature;BME280_humidity;BME280_pressure;Samples;Min_cycle;Max_cycle;Signal;HPM_P1;HPM_P2
2022/12/22 03:26:40;;;;;;;71.47;26.25;;;;;;;8.43;100.00;100161.38;4988028;28;20442;-71
2022/12/22 03:29:06;;;;;;;70.95;28.15;;;;;;;8.46;100.00;100157.69;4990237;28;20050;-71
2022/12/22 03:31:31;;;;;;;64.72;27.98;;;;;;;8.39;100.00;100156.41;4982693;28;20613;-71
2022/12/22 03:33:57;;;;;;;71.18;27.90;;;;;;;8.48;100.00;100163.75;4982287;28;20522;-71
2022/12/22 03:36:22;;;;;;;71.55;28.30;;;;;;;8.40;100.00;100156.28;4989059;28;20459;-71
2022/12/22 03:38:48;;;;;;;70.05;26.33;;;;;;;8.38;100.00;100152.88;4985684;28;20050;-70
2022/12/22 03:46:29;;;;;;;75.65;27.95;;;;;;;8.35;100.00;100138.94;4993972;28;20809;-71
2022/12/22 03:46:43;;;;;;;92.90;31.15;;;;;;;8.36;100.00;100138.84;4992841;28;20061;-71
2022/12/22 03:49:11;;;;;;;86.90;31.00;;;;;;;8.40;100.00;100135.03;4990262;28;20050;-71
2022/12/22 03:51:45;;;;;;;83.03;29.77;;;;;;;8.36;100.00;100125.56;4997467;28;20604;-70
2022/12/22 03:54:12;;;;;;;98.35;33.03;;;;;;;8.36;100.00;100124.69;4996993;28;20734;-70
2022/12/22 03:56:38;;;;;;;97.03;31.75;;;;;;;8.43;100.00;100126.00;4994599;28;20473;-71
2022/12/22 03:59:05;;;;;;;72.15;27.83;;;;;;;8.37;100.00;100129.06;4992645;28;20105;-70
2022/12/22 04:01:32;;;;;;;79.75;29.20;;;;;;;8.41;100.00;100122.59;4992746;28;20043;-70
2022/12/22 04:03:58;;;;;;;107.90;34.78;;;;;;;8.32;100.00;100118.72;4982839;28;20046;-70
2022/12/22 04:06:23;;;;;;;100.43;33.60;;;;;;;8.34;100.00;100114.16;4985865;28;20506;-71
2022/12/22 04:08:49;;;;;;;107.18;33.92;;;;;;;8.32;100.00;100111.59;4960861;28;20702;-70
2022/12/22 04:14:00;;;;;;;109.70;34.90;;;;;;;8.31;100.00;100115.22;4993914;28;20049;-71
2022/12/22 04:16:26;;;;;;;118.68;36.65;;;;;;;8.30;100.00;100115.31;4990430;28;20054;-71
2022/12/22 04:18:52;;;;;;;140.35;39.03;;;;;;;8.28;100.00;100107.47;4987095;28;20052;-71
2022/12/22 04:21:17;;;;;;;112.93;36.90;;;;;;;8.31;100.00;100106.38;4987025;28;20568;-71
2022/12/22 04:23:43;;;;;;;110.55;36.50;;;;;;;8.38;100.00;100101.53;4985065;28;20442;-71
2022/12/22 04:26:08;;;;;;;120.88;38.00;;;;;;;8.42;100.00;100097.75;4985320;28;20050;-71
2022/12/22 04:28:34;;;;;;;97.30;33.75;;;;;;;8.39;100.00;100101.47;4979250;28;20100;-71
2022/12/22 04:30:59;;;;;;;100.07;35.05;;;;;;;8.40;100.00;100097.84;4989889;28;20491;-71
2022/12/22 04:33:27;;;;;;;195.13;43.42;;;;;;;8.37;100.00;100095.38;4986098;28;20046;-71
2022/12/22 04:35:53;;;;;;;117.88;38.08;;;;;;;8.40;100.00;100081.06;4979401;28;20071;-71
2022/12/22 04:38:18;;;;;;;158.50;40.13;;;;;;;8.43;100.00;100092.31;4989613;28;20531;-70
2022/12/22 04:40:44;;;;;;;139.40;40.47;;;;;;;8.44;100.00;100101.16;4971898;28;20054;-71
2022/12/22 04:43:09;;;;;;;185.27;40.50;;;;;;;8.43;100.00;100097.63;4988270;28;20094;-70
2022/12/22 04:45:35;;;;;;;138.52;38.10;;;;;;;8.46;100.00;100101.91;4990267;28;20766;-70
2022/12/22 04:48:00;;;;;;;127.60;38.20;;;;;;;8.40;100.00;100092.53;4986751;28;20612;-70
2022/12/22 04:50:26;;;;;;;101.13;35.03;;;;;;;8.46;100.00;100099.25;4990339;28;20042;-71
2022/12/22 04:52:51;;;;;;;180.88;40.90;;;;;;;8.48;100.00;100090.22;4993895;28;20042;-71
2022/12/22 04:55:17;;;;;;;147.20;38.47;;;;;;;8.42;100.00;100103.06;4982990;28;20500;-71
2022/12/22 04:57:42;;;;;;;154.68;39.20;;;;;;;8.46;100.00;100110.72;4981523;28;20046;-71
2022/12/22 05:00:09;;;;;;;108.95;33.25;;;;;;;8.47;100.00;100130.16;4992928;28;20751;-71
2022/12/22 05:02:35;;;;;;;101.32;33.05;;;;;;;8.46;100.00;100126.66;4987399;28;20061;-70
2022/12/22 05:05:00;;;;;;;118.07;36.60;;;;;;;8.57;100.00;100133.91;4991112;28;20267;-71
2022/12/22 05:07:25;;;;;;;118.85;35.25;;;;;;;8.57;100.00;100132.09;4988989;28;20116;-70
2022/12/22 05:09:51;;;;;;;100.88;34.42;;;;;;;8.56;100.00;100122.44;4987478;28;20053;-70
2022/12/22 05:15:01;;;;;;;108.88;34.70;;;;;;;8.57;100.00;100113.50;4992464;28;20125;-71
2022/12/22 05:17:26;;;;;;;117.07;34.72;;;;;;;8.61;100.00;100110.66;4983080;28;20054;-70
2022/12/22 05:19:51;;;;;;;124.75;35.53;;;;;;;8.53;100.00;100104.06;4993437;28;20038;-71
2022/12/22 05:22:20;;;;;;;156.68;38.30;;;;;;;8.41;100.00;100106.66;4971277;28;20053;-71
2022/12/22 05:24:45;;;;;;;164.30;41.22;;;;;;;8.45;100.00;100102.88;4974478;28;20421;-70
2022/12/22 05:27:12;;;;;;;153.85;39.85;;;;;;;8.54;100.00;100099.59;4996651;28;20045;-70
2022/12/22 05:29:37;;;;;;;136.00;38.60;;;;;;;8.50;100.00;100090.13;4987500;28;20077;-72
2022/12/22 05:32:03;;;;;;;161.07;39.70;;;;;;;8.44;100.00;100103.81;4991404;28;20438;-71
2022/12/22 05:34:28;;;;;;;140.95;37.80;;;;;;;8.50;100.00;100111.38;4988482;28;20737;-71
2022/12/22 05:36:59;;;;;;;210.25;43.42;;;;;;;8.46;100.00;100116.03;4976972;28;20048;-71
2022/12/22 05:39:25;;;;;;;105.13;34.20;;;;;;;8.55;100.00;100114.59;4967849;28;20887;-70
2022/12/22 05:41:53;;;;;;;192.30;41.67;;;;;;;8.54;100.00;100104.91;4988505;28;20127;-71
2022/12/22 05:44:18;;;;;;;368.25;54.22;;;;;;;8.39;100.00;100114.75;4984614;28;20069;-71
2022/12/22 05:46:44;;;;;;;293.13;49.70;;;;;;;8.42;100.00;100109.22;5006394;28;20054;-71
2022/12/22 05:49:09;;;;;;;278.00;48.47;;;;;;;8.43;100.00;100118.88;4998673;28;20045;-69
2022/12/22 05:51:34;;;;;;;342.05;51.78;;;;;;;8.51;100.00;100121.03;4990429;28;20574;-70
2022/12/22 05:54:00;;;;;;;394.50;56.63;;;;;;;8.51;100.00;100121.91;4999640;28;20112;-70
2022/12/22 05:56:25;;;;;;;365.35;53.83;;;;;;;8.54;100.00;100127.00;4981836;28;20146;-70
2022/12/22 05:58:51;;;;;;;205.13;43.85;;;;;;;8.52;100.00;100120.09;4989116;28;20310;-70
2022/12/22 06:01:16;;;;;;;437.20;58.42;;;;;;;8.51;100.00;100121.03;4988743;28;20817;-70
2022/12/22 06:03:42;;;;;;;443.60;62.15;;;;;;;8.50;100.00;100119.34;4990440;28;20057;-72
2022/12/22 06:06:07;;;;;;;508.42;66.03;;;;;;;8.47;100.00;100119.53;4997992;28;20038;-70
2022/12/22 06:08:32;;;;;;;652.78;72.57;;;;;;;8.51;100.00;100123.69;4980694;28;20550;-71
2022/12/22 06:10:58;;;;;;;442.60;63.67;;;;;;;8.40;100.00;100129.72;4998643;28;20490;-71
2022/12/22 06:13:25;;;;;;;411.75;57.47;;;;;;;8.42;100.00;100141.09;4989242;28;20057;-70
2022/12/22 06:15:50;;;;;;;472.23;62.60;;;;;;;8.37;100.00;100140.53;4990685;28;20064;-71
2022/12/22 06:18:16;;;;;;;346.17;56.78;;;;;;;8.44;100.00;100133.91;4995960;28;20045;-71
2022/12/22 06:20:41;;;;;;;333.25;50.58;;;;;;;8.45;100.00;100156.00;4998313;28;20056;-70
2022/12/22 06:23:07;;;;;;;446.27;59.10;;;;;;;8.39;100.00;100157.25;4997513;28;20054;-71
2022/12/22 06:25:32;;;;;;;368.88;56.60;;;;;;;8.42;100.00;100157.03;4988692;28;20140;-70
2022/12/22 06:27:58;;;;;;;382.40;56.20;;;;;;;8.39;100.00;100167.03;4992141;28;20049;-70
2022/12/22 06:30:23;;;;;;;471.60;68.60;;;;;;;8.39;100.00;100167.03;4997152;28;20057;-70
2022/12/22 06:32:49;;;;;;;444.40;66.00;;;;;;;8.40;100.00;100169.56;5000395;28;20065;-71
2022/12/22 06:35:14;;;;;;;199.23;44.13;;;;;;;8.44;100.00;100173.75;4996742;28;20054;-71
2022/12/22 06:37:40;;;;;;;375.55;57.80;;;;;;;8.37;100.00;100179.53;5003869;28;20167;-70
2022/12/22 06:40:07;;;;;;;489.25;64.63;;;;;;;8.38;100.00;100181.25;4988188;28;20800;-71
2022/12/22 06:45:17;;;;;;;235.05;46.90;;;;;;;8.40;100.00;100189.97;4994244;28;20038;-70
2022/12/22 06:47:43;;;;;;;338.27;57.42;;;;;;;8.42;100.00;100188.91;4978787;28;20545;-70
2022/12/22 06:50:09;;;;;;;362.10;56.92;;;;;;;8.40;100.00;100188.19;4987768;28;20109;-70
2022/12/22 06:52:34;;;;;;;429.95;60.90;;;;;;;8.39;100.00;100189.13;4968839;28;20045;-71
2022/12/22 06:55:01;;;;;;;315.88;55.05;;;;;;;8.38;100.00;100189.22;4998462;28;20076;-71
2022/12/22 06:57:27;;;;;;;279.88;50.03;;;;;;;8.42;100.00;100193.38;5003282;28;20061;-71
2022/12/22 06:59:52;;;;;;;343.80;53.83;;;;;;;8.37;100.00;100203.44;4995755;28;20156;-71
2022/12/22 07:02:18;;;;;;;225.18;44.95;;;;;;;8.38;100.00;100203.34;5006718;28;20049;-72
2022/12/22 07:04:44;;;;;;;204.20;45.60;;;;;;;8.40;100.00;100216.56;5004005;28;20908;-71
2022/12/22 07:07:10;;;;;;;166.13;41.47;;;;;;;8.44;100.00;100231.34;4992918;28;20041;-71
2022/12/22 07:09:35;;;;;;;149.27;37.53;;;;;;;8.45;100.00;100225.94;4988800;28;20501;-70
2022/12/22 07:12:01;;;;;;;148.68;38.15;;;;;;;8.50;100.00;100228.28;5003180;28;20037;-72
2022/12/22 07:14:26;;;;;;;189.50;39.38;;;;;;;8.42;100.00;100223.44;5006297;28;20050;-71
2022/12/22 07:16:51;;;;;;;154.50;37.97;;;;;;;8.48;100.00;100236.38;4999406;28;20045;-71
2022/12/22 07:19:17;;;;;;;145.77;34.88;;;;;;;8.49;100.00;100232.75;5004035;28;20053;-72
2022/12/22 07:21:42;;;;;;;161.90;36.15;;;;;;;8.53;100.00;100233.38;5003624;28;20049;-71
2022/12/22 07:24:08;;;;;;;178.82;38.88;;;;;;;8.41;100.00;100237.69;5000421;28;20410;-71
2022/12/22 07:26:34;;;;;;;167.00;36.28;;;;;;;8.35;100.00;100235.41;4981481;28;20077;-72
2022/12/22 07:28:59;;;;;;;134.90;31.92;;;;;;;8.32;100.00;100235.59;5000362;28;20046;-71
2022/12/22 07:31:24;;;;;;;147.98;34.08;;;;;;;8.22;100.00;100221.19;4997420;28;20060;-71
2022/12/22 07:33:50;;;;;;;142.63;32.25;;;;;;;8.16;100.00;100222.44;5002142;28;20045;-71
2022/12/22 07:36:18;;;;;;;161.68;34.20;;;;;;;8.07;100.00;100224.81;5004307;28;20054;-71
2022/12/22 07:38:46;;;;;;;129.70;31.70;;;;;;;8.05;100.00;100225.78;4996996;28;20140;-71
2022/12/22 07:43:59;;;;;;;117.93;28.63;;;;;;;8.01;100.00;100242.00;4989781;28;20042;-71
2022/12/22 07:46:28;;;;;;;146.25;32.70;;;;;;;8.04;100.00;100247.97;4990156;28;20061;-71
2022/12/22 07:51:39;;;;;;;138.68;32.05;;;;;;;8.12;100.00;100265.22;4986234;28;20064;-71
2022/12/22 07:54:07;;;;;;;165.43;34.85;;;;;;;8.17;100.00;100277.25;4977414;28;20077;-71
2022/12/22 07:56:33;;;;;;;155.63;31.80;;;;;;;8.23;100.00;100276.00;4992977;28;20094;-71
2022/12/22 07:58:58;;;;;;;182.23;36.10;;;;;;;8.27;100.00;100275.72;4981545;28;20041;-71
2022/12/22 08:01:24;;;;;;;153.85;32.83;;;;;;;8.29;100.00;100280.97;4993746;28;20470;-71
2022/12/22 08:03:50;;;;;;;132.88;29.90;;;;;;;8.24;100.00;100286.56;4992154;28;20077;-71
2022/12/22 08:06:15;;;;;;;130.45;31.35;;;;;;;8.25;100.00;100293.56;4996499;28;20047;-71
2022/12/22 08:08:41;;;;;;;102.07;26.42;;;;;;;8.27;100.00;100294.31;5001674;28;20049;-72
2022/12/22 08:11:06;;;;;;;97.78;26.90;;;;;;;8.31;100.00;100302.94;5005418;28;20039;-71
2022/12/22 08:13:33;;;;;;;84.22;23.52;;;;;;;8.35;100.00;100306.28;5001791;28;20077;-72
2022/12/22 08:16:07;;;;;;;71.15;20.02;;;;;;;8.33;100.00;100316.97;4977266;28;20042;-71
2022/12/22 08:18:34;;;;;;;63.90;19.27;;;;;;;8.33;100.00;100327.59;4982785;28;20582;-72
2022/12/22 08:21:00;;;;;;;72.28;19.98;;;;;;;8.39;100.00;100329.09;4986582;28;20046;-72
2022/12/22 08:23:26;;;;;;;67.40;20.83;;;;;;;8.39;100.00;100331.75;4994642;28;20153;-70
2022/12/22 08:25:58;;;;;;;65.00;20.55;;;;;;;8.43;100.00;100335.88;4993030;28;20498;-72
2022/12/22 08:28:23;;;;;;;74.50;21.13;;;;;;;8.42;100.00;100334.19;4974791;28;20081;-72
2022/12/22 08:30:49;;;;;;;64.85;19.33;;;;;;;8.48;100.00;100340.00;4980315;28;20161;-71
2022/12/22 08:33:14;;;;;;;67.20;20.48;;;;;;;8.47;100.00;100345.38;4993099;28;20109;-72
2022/12/22 08:35:40;;;;;;;69.15;20.90;;;;;;;8.51;100.00;100346.91;5001799;28;20047;-71
2022/12/22 08:38:06;;;;;;;63.53;21.48;;;;;;;8.57;100.00;100351.81;4999097;28;20041;-71
2022/12/22 08:40:32;;;;;;;68.10;20.95;;;;;;;8.66;100.00;100353.06;4980460;28;20052;-71
2022/12/22 08:43:03;;;;;;;67.35;21.90;;;;;;;8.76;100.00;100346.19;4997301;28;20061;-71
2022/12/22 08:45:29;;;;;;;65.68;21.33;;;;;;;8.82;100.00;100353.78;4997779;28;20113;-72
2022/12/22 08:47:54;;;;;;;75.05;21.73;;;;;;;8.83;100.00;100355.47;4992659;28;20136;-71
2022/12/22 08:50:20;;;;;;;81.68;24.17;;;;;;;8.89;100.00;100359.59;4992313;28;20065;-71
2022/12/22 08:52:46;;;;;;;78.95;21.92;;;;;;;8.92;100.00;100365.53;4990208;28;20049;-71
2022/12/22 08:55:11;;;;;;;77.78;24.15;;;;;;;8.84;100.00;100362.53;4990916;28;20053;-71
2022/12/22 08:57:37;;;;;;;78.03;23.17;;;;;;;8.88;100.00;100358.69;5003108;28;20042;-71
2022/12/22 09:00:07;;;;;;;80.95;24.63;;;;;;;8.88;100.00;100360.50;4990681;28;20510;-72
2022/12/22 09:02:33;;;;;;;82.88;26.10;;;;;;;8.75;100.00;100369.28;4986782;28;20057;-72
2022/12/22 09:04:58;;;;;;;82.55;24.50;;;;;;;8.74;100.00;100362.25;4993865;28;20048;-71
2022/12/22 09:07:24;;;;;;;85.53;24.77;;;;;;;8.71;100.00;100374.88;4985923;28;20053;-71
2022/12/22 09:09:49;;;;;;;75.97;24.30;;;;;;;8.68;100.00;100383.03;4993078;28;20317;-72
2022/12/22 09:12:15;;;;;;;77.70;24.38;;;;;;;8.67;100.00;100382.19;4990272;28;20048;-70
2022/12/22 09:14:40;;;;;;;82.78;23.45;;;;;;;8.69;100.00;100390.09;4991314;28;20046;-71
2022/12/22 09:17:06;;;;;;;74.97;24.65;;;;;;;8.66;100.00;100392.94;4991255;28;20057;-71
2022/12/22 09:19:31;;;;;;;86.00;26.35;;;;;;;8.61;100.00;100395.88;4987933;28;20060;-72
2022/12/22 09:21:57;;;;;;;80.22;25.65;;;;;;;8.54;100.00;100411.34;5003414;28;20056;-71
2022/12/22 09:24:22;;;;;;;86.90;27.70;;;;;;;8.62;100.00;100418.84;4981651;28;20046;-71
2022/12/22 09:26:48;;;;;;;82.05;24.13;;;;;;;8.68;100.00;100422.91;4993368;28;20057;-72
2022/12/22 09:29:14;;;;;;;78.65;25.02;;;;;;;8.59;100.00;100428.81;4994878;28;20054;-71
2022/12/22 09:31:43;;;;;;;83.28;26.50;;;;;;;8.70;100.00;100442.28;4984629;28;20042;-71
2022/12/22 09:34:08;;;;;;;81.43;26.17;;;;;;;8.70;100.00;100443.16;4987447;28;20046;-71
2022/12/22 09:36:34;;;;;;;85.57;24.92;;;;;;;8.75;100.00;100438.41;4982395;28;20054;-71
2022/12/22 09:39:04;;;;;;;81.85;27.17;;;;;;;8.68;100.00;100441.50;5004878;28;20069;-71
2022/12/22 09:41:45;;;;;;;87.57;27.70;;;;;;;8.67;100.00;100453.09;4983303;28;20061;-71
2022/12/22 09:44:18;;;;;;;99.25;28.65;;;;;;;8.64;100.00;100456.81;4991310;28;20042;-72
2022/12/22 09:46:44;;;;;;;97.05;28.33;;;;;;;8.67;100.00;100453.09;4983526;28;20047;-72
2022/12/22 09:49:14;;;;;;;86.88;29.27;;;;;;;8.62;100.00;100457.84;4991125;28;20056;-72
2022/12/22 09:51:43;;;;;;;79.32;27.90;;;;;;;8.65;100.00;100466.50;4985844;28;20074;-71
2022/12/22 09:54:11;;;;;;;91.25;27.30;;;;;;;8.62;100.00;100458.69;4987753;28;20080;-71
2022/12/22 09:56:37;;;;;;;88.95;29.65;;;;;;;8.61;100.00;100464.97;4987457;28;20042;-71
2022/12/22 09:59:11;;;;;;;89.47;27.58;;;;;;;8.37;100.00;100464.66;4976337;28;20860;-71
2022/12/22 10:02:10;;;;;;;76.35;24.42;;;;;;;8.46;100.00;100472.06;5000055;28;20054;-71
2022/12/22 10:04:53;;;;;;;79.85;26.35;;;;;;;8.37;100.00;100459.34;4980549;28;20050;-70
2022/12/22 10:07:34;;;;;;;80.15;25.55;;;;;;;8.45;100.00;100453.56;4989989;28;20042;-71
2022/12/22 10:10:27;;;;;;;89.88;26.65;;;;;;;8.36;100.00;100465.59;4984310;28;20493;-71
2022/12/22 10:13:14;;;;;;;;;;;;;;;8.25;100.00;100460.06;4989876;28;20034;-70
2022/12/22 10:15:40;;;;;;;79.32;22.35;;;;;;;8.19;100.00;100463.94;4988139;28;19930;-71
2022/12/22 10:18:18;;;;;;;80.90;26.02;;;;;;;8.30;100.00;100480.06;4987478;28;20202;-71
2022/12/22 10:20:46;;;;;;;84.55;26.73;;;;;;;8.45;100.00;100477.50;4979935;28;20052;-71
2022/12/22 10:23:26;;;;;;;84.22;27.65;;;;;;;8.41;100.00;100471.50;4971634;28;20715;-71
2022/12/22 10:25:55;;;;;;;77.05;24.75;;;;;;;8.25;100.00;100476.84;4985217;28;20057;-72
2022/12/22 10:28:27;;;;;;;84.30;25.10;;;;;;;8.19;100.00;100479.03;4980767;28;20058;-71
2022/12/22 10:31:24;;;;;;;67.20;22.60;;;;;;;8.04;100.00;100471.00;4977532;28;20097;-71
2022/12/22 10:33:52;;;;;;;77.05;24.98;;;;;;;8.00;100.00;100461.50;4975187;28;20132;-70
2022/12/22 10:36:25;;;;;;;66.95;21.90;;;;;;;7.98;100.00;100474.03;4978344;28;20053;-71
2022/12/22 10:39:09;;;;;;;74.03;22.70;;;;;;;7.98;100.00;100487.31;4992775;28;20112;-71
2022/12/22 10:41:44;;;;;;;73.30;21.80;;;;;;;8.00;100.00;100481.91;4960856;28;20058;-70
2022/12/22 10:44:21;;;;;;;68.28;21.00;;;;;;;8.00;100.00;100487.22;4990123;28;20120;-70
2022/12/22 10:46:59;;;;;;;64.30;20.38;;;;;;;7.98;100.00;100494.38;4988098;28;20065;-71
2022/12/22 10:49:37;;;;;;;63.83;19.60;;;;;;;7.99;100.00;100499.63;4987481;28;20853;-70
2022/12/22 10:52:11;;;;;;;70.15;21.80;;;;;;;8.15;100.00;100498.72;4977521;28;20810;-71
2022/12/22 10:54:39;;;;;;;60.92;19.23;;;;;;;8.18;100.00;100501.19;4992910;28;20062;-71
2022/12/22 10:57:15;;;;;;;64.63;20.40;;;;;;;8.13;100.00;100489.97;4976635;28;20042;-70
2022/12/22 10:59:51;;;;;;;64.82;18.58;;;;;;;8.11;100.00;100500.69;4996316;28;20518;-71
2022/12/22 11:02:20;;;;;;;52.53;17.98;;;;;;;8.00;100.00;100504.00;4974018;28;20046;-71
2022/12/22 11:04:46;;;;;;;62.40;18.38;;;;;;;7.97;100.00;100506.81;4981489;28;20050;-70
2022/12/22 11:07:12;;;;;;;54.40;18.25;;;;;;;7.94;100.00;100516.78;4984256;28;20042;-70
2022/12/22 11:09:37;;;;;;;55.33;17.88;;;;;;;7.95;100.00;100515.81;4980715;28;20069;-71
2022/12/22 11:12:15;;;;;;;58.08;17.27;;;;;;;7.92;100.00;100519.50;4990131;28;20096;-71
2022/12/22 11:15:08;;;;;;;66.50;19.23;;;;;;;8.03;100.00;100526.84;4984445;28;20062;-71
2022/12/22 11:17:56;;;;;;;49.08;17.38;;;;;;;8.05;100.00;100533.78;4979977;28;20054;-71
2022/12/22 11:20:39;;;;;;;47.70;17.25;;;;;;;8.03;100.00;100535.69;4975083;28;20046;-71
2022/12/22 11:23:33;;;;;;;42.58;14.80;;;;;;;7.99;100.00;100535.94;4970863;28;20046;-71
2022/12/22 11:26:25;;;;;;;40.75;13.48;;;;;;;8.05;100.00;100536.44;4987810;28;20046;-71
2022/12/22 11:29:04;;;;;;;41.72;13.48;;;;;;;7.97;100.00;100530.69;4990375;28;20057;-71
2022/12/22 11:31:48;;;;;;;43.53;12.98;;;;;;;8.16;100.00;100534.97;4986505;28;20072;-70
2022/12/22 11:34:39;;;;;;;47.17;13.30;;;;;;;8.11;100.00;100539.69;4985833;28;20101;-71
2022/12/22 11:37:47;;;;;;;59.83;14.27;;;;;;;7.82;100.00;100544.84;4976794;28;20046;-70
2022/12/22 11:40:38;;;;;;;49.83;14.32;;;;;;;7.90;100.00;100544.44;4917013;29;20135;-71
2022/12/22 11:43:25;;;;;;;42.58;13.60;;;;;;;7.92;100.00;100548.69;4903900;29;20071;-71
2022/12/22 11:46:00;;;;;;;39.78;13.82;;;;;;;8.04;100.00;100549.81;4903590;29;20055;-71
2022/12/22 11:48:47;;;;;;;44.95;15.85;;;;;;;8.15;100.00;100555.34;4903863;29;20078;-71
2022/12/22 11:51:34;;;;;;;40.28;14.35;;;;;;;8.00;100.00;100559.75;4911931;29;20713;-71
2022/12/22 11:54:14;;;;;;;46.90;14.18;;;;;;;7.97;100.00;100562.56;4919713;29;20405;-71
2022/12/22 11:56:43;;;;;;;46.38;13.43;;;;;;;8.14;100.00;100556.31;4907006;29;20580;-71
2022/12/22 11:59:14;;;;;;;33.40;15.60;;;;;;;8.34;100.00;100560.47;4910297;29;20106;-70
2022/12/22 12:02:33;;;;;;;37.17;17.48;;;;;;;8.16;100.00;100551.75;4923028;29;20047;-70
2022/12/22 12:05:27;;;;;;;47.72;17.50;;;;;;;8.19;100.00;100558.69;4907200;29;20808;-71
2022/12/22 12:08:14;;;;;;;51.20;20.70;;;;;;;7.98;100.00;100559.00;4905860;29;20051;-71
2022/12/22 12:10:56;;;;;;;56.33;21.33;;;;;;;7.94;100.00;100560.09;4927649;28;20087;-71
2022/12/22 12:13:53;;;;;;;55.83;22.15;;;;;;;7.92;100.00;100554.00;4938265;28;20069;-70
2022/12/22 12:16:44;;;;;;;56.47;22.70;;;;;;;7.92;100.00;100550.50;4930066;28;20203;-70
2022/12/22 12:19:21;;;;;;;56.35;22.27;;;;;;;8.12;100.00;100560.84;4929891;28;20067;-70
2022/12/22 12:21:51;;;;;;;67.93;25.98;;;;;;;8.30;100.00;100561.56;4927552;28;20468;-71
2022/12/22 12:24:29;;;;;;;57.38;25.23;;;;;;;8.41;100.00;100553.84;4928443;28;20051;-70
2022/12/22 12:27:38;;;;;;;58.17;24.33;;;;;;;8.59;100.00;100551.94;4926284;29;20051;-70
2022/12/22 12:30:12;;;;;;;57.47;23.63;;;;;;;8.73;100.00;100549.25;4928986;28;20052;-70
2022/12/22 12:32:56;;;;;;;60.60;25.77;;;;;;;8.78;100.00;100543.66;4934479;28;20097;-71
2022/12/22 12:35:30;;;;;;;62.17;24.60;;;;;;;8.81;100.00;100543.50;4937912;28;20532;-70
2022/12/22 12:38:06;;;;;;;56.13;23.13;;;;;;;9.04;100.00;100527.00;4936824;28;20043;-70
2022/12/22 12:40:46;;;;;;;58.13;24.23;;;;;;;9.18;100.00;100526.13;4990377;28;20203;-70
2022/12/22 12:43:14;;;;;;;55.78;22.42;;;;;;;9.31;100.00;100523.53;4989110;28;20105;-71
2022/12/22 12:45:46;;;;;;;49.97;21.92;;;;;;;9.22;100.00;100524.13;4998548;28;20049;-71
2022/12/22 12:48:21;;;;;;;53.42;23.05;;;;;;;9.15;100.00;100509.50;4980081;28;20227;-70
2022/12/22 12:50:50;;;;;;;50.00;21.88;;;;;;;9.04;100.00;100521.69;4990757;28;20054;-70
2022/12/22 12:53:20;;;;;;;50.47;21.67;;;;;;;9.12;100.00;100517.66;5000314;28;20046;-71
2022/12/22 12:55:49;;;;;;;41.90;22.27;;;;;;;9.05;100.00;100511.88;5002552;28;20073;-70
2022/12/22 12:58:36;;;;;;;44.97;21.80;;;;;;;8.93;100.00;100500.19;4989979;28;20093;-70
2022/12/22 13:01:09;;;;;;;49.67;22.13;;;;;;;9.01;100.00;100497.91;5008383;28;20077;-70
2022/12/22 13:03:37;;;;;;;48.17;22.27;;;;;;;9.06;100.00;100501.16;5002963;28;20045;-70
2022/12/22 13:06:05;;;;;;;46.08;21.35;;;;;;;9.16;100.00;100501.44;5008029;28;20069;-70
2022/12/22 13:08:32;;;;;;;46.85;20.65;;;;;;;9.43;100.00;100506.78;4992158;28;20089;-71
2022/12/22 13:10:57;;;;;;;40.20;18.65;;;;;;;9.56;100.00;100499.72;5006714;28;20072;-70
2022/12/22 13:13:26;;;;;;;36.63;16.63;;;;;;;9.49;100.00;100509.09;4987585;28;20510;-70
2022/12/22 13:16:06;;;;;;;36.13;18.00;;;;;;;9.50;100.00;100499.28;4999427;28;20058;-70
2022/12/22 13:18:31;;;;;;;34.85;15.23;;;;;;;9.33;100.00;100511.00;4988755;28;20049;-71
2022/12/22 13:20:58;;;;;;;30.80;14.52;;;;;;;9.28;100.00;100516.59;5006586;28;20485;-71
2022/12/22 13:23:28;;;;;;;31.88;14.30;;;;;;;9.13;100.00;100519.38;5008298;28;20692;-71
2022/12/22 13:25:58;;;;;;;28.55;12.02;;;;;;;9.02;100.00;100538.66;5003493;28;20054;-70
2022/12/22 13:28:25;;;;;;;26.30;10.48;;;;;;;8.88;100.00;100541.31;4984718;28;20696;-70
2022/12/22 13:30:56;;;;;;;25.30;10.95;;;;;;;8.67;100.00;100541.66;4997370;28;20141;-71
2022/12/22 13:33:25;;;;;;;26.77;11.82;;;;;;;8.64;100.00;100547.19;4995439;28;20054;-70
2022/12/22 13:35:52;;;;;;;29.30;11.32;;;;;;;8.64;100.00;100552.50;4989093;28;20046;-70
2022/12/22 13:38:29;;;;;;;27.83;13.10;;;;;;;8.61;100.00;100549.16;4991318;28;20108;-70
2022/12/22 13:40:59;;;;;;;31.13;13.65;;;;;;;8.66;100.00;100549.75;4980741;28;20069;-70
2022/12/22 13:43:26;;;;;;;40.05;12.93;;;;;;;8.61;100.00;100557.13;4971865;28;20694;-71
2022/12/22 13:45:57;;;;;;;28.30;12.35;;;;;;;8.58;100.00;100550.19;4977787;28;20125;-70
2022/12/22 13:48:29;;;;;;;34.25;13.63;;;;;;;8.68;100.00;100548.69;4977424;28;20055;-71
2022/12/22 13:51:03;;;;;;;41.13;14.60;;;;;;;8.73;100.00;100549.25;4992332;28;20097;-71
2022/12/22 13:53:44;;;;;;;42.90;16.98;;;;;;;8.60;100.00;100543.00;4974126;28;20051;-71
2022/12/22 13:56:24;;;;;;;45.55;19.73;;;;;;;8.51;100.00;100546.19;4969674;28;20051;-70
2022/12/22 13:59:00;;;;;;;43.78;19.60;;;;;;;8.50;100.00;100547.16;4974924;28;20105;-71
2022/12/22 14:01:26;;;;;;;43.70;19.95;;;;;;;8.59;100.00;100551.94;4978756;28;20050;-69
2022/12/22 14:03:57;;;;;;;48.22;19.58;;;;;;;8.64;100.00;100543.69;4989630;28;20088;-70
2022/12/22 14:06:39;;;;;;;51.50;22.20;;;;;;;8.57;100.00;100538.72;4982707;28;20054;-70
2022/12/22 14:09:24;;;;;;;52.30;23.35;;;;;;;8.57;100.00;100540.50;4972878;28;20130;-71
2022/12/22 14:12:05;;;;;;;49.70;22.08;;;;;;;8.66;100.00;100545.28;4977415;28;20046;-71
2022/12/22 14:14:38;;;;;;;47.55;21.95;;;;;;;8.60;100.00;100534.16;4962117;28;20161;-70
2022/12/22 14:17:12;;;;;;;45.63;22.05;;;;;;;8.63;100.00;100529.50;4975480;28;20059;-70
2022/12/22 14:19:37;;;;;;;52.03;22.30;;;;;;;8.63;100.00;100528.66;4973638;28;20096;-70
2022/12/22 14:22:10;;;;;;;43.83;21.27;;;;;;;8.50;100.00;100521.44;4970913;28;20050;-70
2022/12/22 14:24:53;;;;;;;46.83;21.33;;;;;;;8.44;100.00;100519.16;4972242;28;20047;-71
2022/12/22 14:27:47;;;;;;;49.03;21.70;;;;;;;8.42;100.00;100520.16;4977759;28;20061;-71
2022/12/22 14:30:19;;;;;;;53.60;23.58;;;;;;;8.41;100.00;100523.78;4955449;28;20047;-71
2022/12/22 14:32:47;;;;;;;48.50;23.02;;;;;;;8.41;100.00;100516.66;4971295;28;20137;-71
2022/12/22 14:35:19;;;;;;;48.45;21.83;;;;;;;8.41;100.00;100516.66;4972782;28;20043;-70
2022/12/22 14:37:45;;;;;;;49.60;21.23;;;;;;;8.38;100.00;100519.50;4974074;28;20054;-69
2022/12/22 14:40:39;;;;;;;51.03;21.80;;;;;;;8.32;100.00;100511.84;4969763;28;20154;-70
2022/12/22 14:43:17;;;;;;;57.00;21.88;;;;;;;8.31;100.00;100499.53;4989937;28;20050;-70
2022/12/22 14:45:48;;;;;;;54.40;25.33;;;;;;;8.26;100.00;100517.53;4973688;28;20042;-70
2022/12/22 14:48:26;;;;;;;59.88;24.63;;;;;;;8.22;100.00;100511.53;4985321;28;20158;-71
2022/12/22 14:50:53;;;;;;;52.25;25.67;;;;;;;8.21;100.00;100504.53;4971896;28;20057;-70
2022/12/22 14:53:44;;;;;;;54.80;25.70;;;;;;;8.21;100.00;100503.69;4962668;28;20082;-70
2022/12/22 14:56:12;;;;;;;64.65;26.65;;;;;;;8.20;100.00;100494.00;4955690;28;20050;-70
2022/12/22 14:58:40;;;;;;;55.97;24.73;;;;;;;8.16;100.00;100490.66;4976696;28;20575;-69
2022/12/22 15:01:20;;;;;;;58.08;24.17;;;;;;;8.19;100.00;100492.31;4977453;28;20034;-70
2022/12/22 15:04:21;;;;;;;55.83;22.98;;;;;;;8.12;100.00;100488.28;4976295;28;20138;-71
2022/12/22 15:06:50;;;;;;;55.45;23.48;;;;;;;8.12;100.00;100482.97;4939924;28;20102;-70